createdAt,value
2017-05-07T00:01:48.405Z,60.00
2017-05-07T00:04:15.769Z,61.00
2017-05-07T00:06:43.142Z,61.30
2017-05-07T00:09:10.514Z,61.20
2017-05-07T00:11:37.849Z,61.50
2017-05-07T00:14:05.259Z,61.30
2017-05-07T00:16:33.396Z,61.80
2017-05-07T00:19:00.742Z,61.90
2017-05-07T00:21:28.117Z,62.60
2017-05-07T00:23:55.446Z,62.60
2017-05-07T00:26:22.799Z,62.60
2017-05-07T00:28:50.151Z,62.00
2017-05-07T00:31:17.496Z,62.20
2017-05-07T00:33:44.853Z,61.90
2017-05-07T00:36:12.185Z,61.90
2017-05-07T00:38:39.549Z,61.90
2017-05-07T00:41:06.806Z,61.20
2017-05-07T00:43:34.184Z,62.20
2017-05-07T00:46:01.522Z,61.90
2017-05-07T00:48:28.963Z,60.90
2017-05-07T00:53:34.072Z,62.70
2017-05-07T00:56:01.406Z,62.70
2017-05-07T00:58:28.767Z,63.10
2017-05-07T01:00:56.119Z,63.10
2017-05-07T01:03:23.481Z,63.00
2017-05-07T01:05:51.602Z,63.20
2017-05-07T01:08:18.981Z,62.90
2017-05-07T01:10:46.325Z,62.70
2017-05-07T01:13:13.700Z,61.40
2017-05-07T01:15:41.034Z,60.30
2017-05-07T01:18:08.401Z,59.70
2017-05-07T01:20:35.768Z,59.00
2017-05-07T01:23:03.119Z,59.20
2017-05-07T01:25:30.491Z,58.40
2017-05-07T01:27:58.586Z,59.00
2017-05-07T01:30:26.680Z,59.60
2017-05-07T01:32:54.019Z,59.90
2017-05-07T01:35:21.390Z,60.70
2017-05-07T01:37:48.742Z,60.80
2017-05-07T01:40:16.089Z,60.50
2017-05-07T01:42:43.459Z,60.10
2017-05-07T01:45:10.826Z,58.70
2017-05-07T01:47:38.177Z,59.00
2017-05-07T01:50:05.603Z,58.40
2017-05-07T01:52:33.742Z,58.40
2017-05-07T01:55:01.034Z,57.50
2017-05-07T01:57:28.395Z,57.50
2017-05-07T01:59:55.838Z,57.10
2017-05-07T02:02:23.198Z,59.70
2017-05-07T02:04:50.553Z,60.80
2017-05-07T02:07:17.929Z,59.10
2017-05-07T02:09:45.245Z,58.90
2017-05-07T02:12:12.487Z,59.80
2017-05-07T02:14:39.862Z,59.00
2017-05-07T02:17:07.200Z,60.10
2017-05-07T02:19:34.521Z,60.70
2017-05-07T02:22:02.641Z,61.10
2017-05-07T02:24:29.979Z,60.30
2017-05-07T02:26:57.329Z,60.50
2017-05-07T02:29:24.670Z,61.00
2017-05-07T02:31:51.997Z,60.90
2017-05-07T02:34:20.104Z,62.00
2017-05-07T02:36:47.414Z,62.70
2017-05-07T02:39:15.519Z,62.70
2017-05-07T02:41:42.915Z,62.80
2017-05-07T02:44:10.346Z,62.50
2017-05-07T02:46:38.889Z,61.30
2017-05-07T02:49:07.017Z,60.50
2017-05-07T02:51:34.345Z,60.00
2017-05-07T02:54:01.717Z,59.20
2017-05-07T02:56:29.101Z,59.10
2017-05-07T02:58:56.478Z,58.00
2017-05-07T03:01:23.797Z,58.80
2017-05-07T03:03:51.150Z,58.60
2017-05-07T03:06:18.477Z,58.50
2017-05-07T03:08:45.818Z,58.00
2017-05-07T03:11:13.173Z,57.30
2017-05-07T03:13:40.525Z,57.00
2017-05-07T03:16:07.863Z,56.90
2017-05-07T03:18:35.230Z,56.30
2017-05-07T03:21:02.570Z,56.40
2017-05-07T03:23:30.630Z,56.40
2017-05-07T03:25:57.877Z,56.80
2017-05-07T03:28:25.187Z,56.80
2017-05-07T03:30:52.576Z,56.20
2017-05-07T03:33:19.896Z,56.90
2017-05-07T03:35:47.229Z,57.90
2017-05-07T03:38:14.574Z,59.90
2017-05-07T03:40:41.907Z,59.70
2017-05-07T03:43:09.255Z,58.60
2017-05-07T03:45:36.748Z,58.20
2017-05-07T03:48:04.103Z,58.10
2017-05-07T03:50:31.448Z,57.20
2017-05-07T03:52:58.811Z,58.10
2017-05-07T03:55:26.190Z,58.80
2017-05-07T03:57:53.559Z,57.70
2017-05-07T04:00:20.981Z,58.20
2017-05-07T04:02:48.370Z,60.00
2017-05-07T04:05:15.756Z,59.40
2017-05-07T04:07:43.128Z,58.20
2017-05-07T04:10:10.329Z,59.70
2017-05-07T04:12:37.697Z,60.20
2017-05-07T04:15:05.777Z,59.70
2017-05-07T04:17:33.941Z,59.80
2017-05-07T04:20:01.287Z,59.80
2017-05-07T04:22:28.658Z,59.30
2017-05-07T04:24:56.006Z,60.00
2017-05-07T04:27:23.362Z,60.00
2017-05-07T04:29:50.853Z,60.10
2017-05-07T04:32:18.312Z,59.60
2017-05-07T04:34:45.678Z,59.30
2017-05-07T04:37:13.001Z,59.60
2017-05-07T04:39:40.358Z,58.60
2017-05-07T04:42:07.748Z,58.40
2017-05-07T04:44:35.845Z,58.90
2017-05-07T04:47:03.227Z,57.90
2017-05-07T04:49:30.577Z,57.50
2017-05-07T04:51:57.913Z,57.70
2017-05-07T04:54:25.283Z,57.10
2017-05-07T04:56:52.630Z,56.80
2017-05-07T04:59:19.981Z,57.40
2017-05-07T05:01:47.400Z,57.20
2017-05-07T05:04:14.754Z,57.00
2017-05-07T05:06:42.857Z,56.90
2017-05-07T05:09:10.198Z,57.00
2017-05-07T05:11:38.294Z,57.00
2017-05-07T05:14:05.633Z,57.00
2017-05-07T05:16:33.052Z,56.90
2017-05-07T05:19:21.814Z,57.00
2017-05-07T05:21:59.763Z,57.00
2017-05-07T05:27:30.110Z,60.40
2017-05-07T05:30:20.358Z,61.40
2017-05-07T05:32:48.470Z,62.20
2017-05-07T05:35:15.854Z,61.40
2017-05-07T05:37:43.237Z,60.70
2017-05-07T05:40:11.326Z,60.50
2017-05-07T05:42:38.697Z,60.90
2017-05-07T05:45:06.105Z,62.60
2017-05-07T05:47:33.526Z,63.30
2017-05-07T05:50:00.898Z,63.70
2017-05-07T05:52:29.027Z,65.10
2017-05-07T05:54:56.369Z,64.50
2017-05-07T05:57:23.749Z,63.30
2017-05-07T05:59:51.077Z,62.80
2017-05-07T06:02:18.457Z,64.40
2017-05-07T06:04:45.789Z,64.60
2017-05-07T06:07:13.229Z,63.50
2017-05-07T06:09:40.589Z,64.40
2017-05-07T06:12:08.645Z,63.50
2017-05-07T06:14:35.978Z,64.70
2017-05-07T06:17:04.098Z,65.40
2017-05-07T06:19:31.458Z,66.40
2017-05-07T06:21:58.800Z,66.70
2017-05-07T06:24:26.168Z,65.20
2017-05-07T06:26:53.535Z,65.30
2017-05-07T06:29:20.921Z,64.70
2017-05-07T06:31:49.030Z,62.90
2017-05-07T06:34:16.381Z,64.50
2017-05-07T06:36:43.730Z,63.00
2017-05-07T06:39:11.098Z,62.40
2017-05-07T06:41:38.438Z,63.90
2017-05-07T06:44:05.831Z,64.60
2017-05-07T06:46:33.203Z,65.30
2017-05-07T06:49:00.618Z,64.90
2017-05-07T06:51:28.105Z,64.10
2017-05-07T06:53:55.429Z,63.40
2017-05-07T06:56:22.767Z,62.20
2017-05-07T06:58:50.106Z,62.50
2017-05-07T07:01:17.424Z,64.10
2017-05-07T07:03:44.806Z,63.20
2017-05-07T07:06:12.193Z,63.00
2017-05-07T07:08:39.593Z,61.90
2017-05-07T07:11:06.933Z,61.80
2017-05-07T07:13:34.290Z,60.10
2017-05-07T07:16:01.641Z,59.40
2017-05-07T07:18:28.974Z,62.00
2017-05-07T07:20:56.370Z,62.70
2017-05-07T07:23:24.797Z,61.40
2017-05-07T07:25:52.198Z,60.00
2017-05-07T07:28:20.283Z,60.40
2017-05-07T07:30:47.649Z,60.20
2017-05-07T07:33:14.945Z,60.00
2017-05-07T07:35:42.321Z,59.70
2017-05-07T07:38:09.666Z,59.70
2017-05-07T07:40:37.133Z,59.10
2017-05-07T07:43:04.561Z,60.00
2017-05-07T07:45:31.913Z,59.60
2017-05-07T07:47:59.277Z,60.10
2017-05-07T07:50:28.062Z,60.00
2017-05-07T07:52:55.533Z,60.60
2017-05-07T07:55:23.377Z,61.60
2017-05-07T07:57:52.497Z,61.30
2017-05-07T08:00:20.302Z,61.30
2017-05-07T08:02:47.853Z,61.30
2017-05-07T08:05:15.274Z,61.90
2017-05-07T08:07:42.633Z,62.60
2017-05-07T08:10:10.770Z,62.20
2017-05-07T08:12:38.049Z,61.50
2017-05-07T08:15:05.389Z,61.50
2017-05-07T08:17:32.770Z,60.20
2017-05-07T08:22:35.206Z,61.60
2017-05-07T08:25:02.643Z,61.40
2017-05-07T08:27:30.020Z,60.30
2017-05-07T08:29:58.289Z,61.30
2017-05-07T08:32:25.762Z,60.50
2017-05-07T08:34:53.121Z,60.30
2017-05-07T08:37:21.185Z,60.20
2017-05-07T08:39:48.573Z,60.10
2017-05-07T08:42:16.754Z,59.80
2017-05-07T08:44:44.528Z,59.30
2017-05-07T08:47:12.122Z,57.40
2017-05-07T08:49:39.473Z,57.90
2017-05-07T08:52:06.863Z,58.30
2017-05-07T08:54:34.219Z,59.40
2017-05-07T08:57:01.732Z,57.90
2017-05-07T08:59:29.052Z,57.60
2017-05-07T09:01:56.449Z,57.20
2017-05-07T09:04:23.861Z,57.60
2017-05-07T09:06:51.291Z,57.80
2017-05-07T09:09:18.630Z,57.30
2017-05-07T09:12:08.050Z,57.30
2017-05-07T09:14:51.050Z,58.10
2017-05-07T09:17:49.365Z,58.40
2017-05-07T09:20:31.750Z,57.80
2017-05-07T09:22:59.335Z,57.70
2017-05-07T09:25:26.688Z,57.70
2017-05-07T09:27:53.959Z,58.50
2017-05-07T09:30:21.305Z,57.30
2017-05-07T09:32:48.690Z,57.70
2017-05-07T09:35:16.065Z,55.60
2017-05-07T09:37:44.225Z,56.10
2017-05-07T09:40:11.638Z,57.00
2017-05-07T09:42:39.013Z,56.00
2017-05-07T09:45:06.448Z,54.90
2017-05-07T09:47:33.801Z,54.60
2017-05-07T09:50:01.140Z,55.40
2017-05-07T09:52:28.525Z,55.00
2017-05-07T09:54:55.156Z,54.90
2017-05-07T09:57:22.549Z,53.40
2017-05-07T09:59:50.872Z,53.60
2017-05-07T10:02:18.237Z,53.40
2017-05-07T10:04:45.612Z,53.50
2017-05-07T10:07:12.998Z,53.40
2017-05-07T10:09:40.417Z,54.10
2017-05-07T10:12:07.897Z,52.70
2017-05-07T10:14:35.986Z,54.40
2017-05-07T10:17:03.354Z,54.30
2017-05-07T10:19:30.732Z,51.90
2017-05-07T10:21:58.108Z,51.80
2017-05-07T10:24:25.443Z,52.00
2017-05-07T10:26:53.882Z,51.80
2017-05-07T10:29:21.795Z,52.60
2017-05-07T10:31:49.170Z,52.90
2017-05-07T10:34:25.958Z,52.40
2017-05-07T10:36:53.414Z,52.20
2017-05-07T10:39:20.854Z,52.40
2017-05-07T10:41:48.961Z,52.30
2017-05-07T10:44:16.368Z,53.60
2017-05-07T10:46:43.713Z,52.50
2017-05-07T10:49:11.202Z,52.30
2017-05-07T10:51:38.639Z,53.20
2017-05-07T10:54:06.098Z,52.70
2017-05-07T10:56:34.270Z,52.30
2017-05-07T10:59:01.617Z,52.10
2017-05-07T11:01:29.073Z,53.90
2017-05-07T11:03:56.546Z,53.30
2017-05-07T11:06:24.690Z,53.90
2017-05-07T11:08:52.190Z,53.00
2017-05-07T11:11:20.269Z,52.60
2017-05-07T11:13:47.625Z,52.90
2017-05-07T11:16:14.990Z,52.50
2017-05-07T11:18:42.459Z,50.80
2017-05-07T11:21:09.846Z,51.30
2017-05-07T11:23:37.942Z,52.00
2017-05-07T11:26:05.318Z,49.60
2017-05-07T11:28:32.674Z,50.30
2017-05-07T11:31:00.047Z,49.00
2017-05-07T11:33:27.377Z,48.40
2017-05-07T11:35:54.628Z,49.40
2017-05-07T11:38:21.978Z,50.00
2017-05-07T11:40:49.373Z,48.60
2017-05-07T11:43:16.859Z,49.20
2017-05-07T11:45:44.198Z,50.30
2017-05-07T11:48:11.652Z,48.20
2017-05-07T11:50:39.137Z,48.20
2017-05-07T11:53:06.520Z,48.80
2017-05-07T11:55:33.919Z,48.40
2017-05-07T11:58:01.373Z,48.10
2017-05-07T12:00:29.034Z,48.90
2017-05-07T12:02:56.477Z,48.80
2017-05-07T12:05:23.894Z,49.40
2017-05-07T12:07:51.309Z,51.00
2017-05-07T12:10:18.697Z,51.60
2017-05-07T12:12:46.067Z,49.80
2017-05-07T12:15:13.450Z,50.40
2017-05-07T12:17:40.786Z,49.50
2017-05-07T12:20:08.158Z,49.30
2017-05-07T12:22:35.500Z,48.80
2017-05-07T12:25:02.981Z,47.50
2017-05-07T12:27:30.599Z,46.60
2017-05-07T12:29:58.282Z,45.30
2017-05-07T12:32:25.653Z,45.90
2017-05-07T12:34:53.019Z,45.30
2017-05-07T12:37:20.328Z,44.60
2017-05-07T12:39:47.697Z,44.00
2017-05-07T12:42:15.197Z,43.40
2017-05-07T12:44:42.565Z,41.60
2017-05-07T12:47:09.999Z,42.90
2017-05-07T12:49:38.078Z,43.30
2017-05-07T12:52:05.454Z,44.60
2017-05-07T12:54:32.711Z,44.00
2017-05-07T12:57:00.115Z,44.20
2017-05-07T12:59:28.281Z,44.20
2017-05-07T13:01:55.735Z,44.40
2017-05-07T13:04:23.178Z,44.70
2017-05-07T13:06:50.569Z,42.40
2017-05-07T13:09:18.766Z,42.40
2017-05-07T13:11:46.171Z,41.70
2017-05-07T13:14:13.481Z,39.20
2017-05-07T13:16:40.858Z,40.60
2017-05-07T13:19:08.197Z,39.60
2017-05-07T13:21:35.539Z,40.20
2017-05-07T13:24:02.897Z,40.50
2017-05-07T13:26:30.281Z,39.90
2017-05-07T13:28:57.621Z,39.10
2017-05-07T13:31:24.962Z,39.50
2017-05-07T13:33:52.869Z,39.20
2017-05-07T13:36:20.642Z,40.80
2017-05-07T13:38:50.279Z,37.30
2017-05-07T13:41:18.782Z,39.00
2017-05-07T13:43:46.308Z,36.80
2017-05-07T13:46:13.669Z,37.60
2017-05-07T13:48:41.043Z,37.20
2017-05-07T13:51:08.318Z,36.90
2017-05-07T13:53:35.764Z,37.30
2017-05-07T13:56:03.141Z,37.70
2017-05-07T13:58:30.522Z,38.70
2017-05-07T14:00:57.881Z,40.10
2017-05-07T14:03:26.009Z,39.70
2017-05-07T14:05:53.361Z,40.70
2017-05-07T14:08:20.698Z,41.60
2017-05-07T14:10:48.069Z,42.80
2017-05-07T14:13:15.502Z,45.90
2017-05-07T14:15:42.906Z,45.50
2017-05-07T14:18:11.022Z,44.40
2017-05-07T14:20:38.361Z,44.30
2017-05-07T14:23:05.725Z,45.00
2017-05-07T14:25:33.230Z,45.60
2017-05-07T14:28:00.610Z,44.90
2017-05-07T14:30:28.032Z,45.40
2017-05-07T14:32:55.383Z,45.30
2017-05-07T14:35:22.747Z,44.70
2017-05-07T14:37:49.995Z,44.70
2017-05-07T14:40:18.091Z,44.20
2017-05-07T14:42:45.441Z,44.80
2017-05-07T14:45:13.542Z,44.40
2017-05-07T14:47:40.881Z,46.00
2017-05-07T14:50:08.277Z,45.80
2017-05-07T14:52:35.633Z,44.80
2017-05-07T14:55:02.997Z,45.10
2017-05-07T14:57:30.334Z,45.10
2017-05-07T14:59:57.749Z,45.40
2017-05-07T15:02:25.163Z,45.20
2017-05-07T15:04:53.265Z,45.80
2017-05-07T15:07:20.742Z,46.60
2017-05-07T15:09:48.136Z,46.10
2017-05-07T15:12:15.482Z,45.00
2017-05-07T15:14:42.948Z,44.70
2017-05-07T15:17:10.338Z,45.10
2017-05-07T15:19:38.477Z,45.10
2017-05-07T15:22:05.801Z,46.10
2017-05-07T15:24:33.161Z,45.90
2017-05-07T15:27:00.502Z,46.20
2017-05-07T15:29:27.833Z,46.50
2017-05-07T15:31:55.190Z,47.10
2017-05-07T15:34:22.619Z,47.40
2017-05-07T15:36:49.990Z,45.80
2017-05-07T15:39:17.410Z,45.50
2017-05-07T15:41:44.758Z,46.20
2017-05-07T15:44:12.210Z,44.50
2017-05-07T15:46:39.595Z,44.20
2017-05-07T15:49:07.013Z,43.70
2017-05-07T15:51:34.366Z,45.10
2017-05-07T15:54:01.822Z,44.80
2017-05-07T15:56:29.222Z,43.70
2017-05-07T15:58:56.628Z,43.70
2017-05-07T16:01:24.088Z,43.60
2017-05-07T16:03:51.829Z,43.30
2017-05-07T16:06:19.310Z,42.70
2017-05-07T16:08:46.664Z,43.10
2017-05-07T16:11:14.018Z,43.40
2017-05-07T16:13:41.379Z,42.90
2017-05-07T16:16:20.818Z,42.90
2017-05-07T16:19:03.115Z,42.90
2017-05-07T16:22:07.925Z,42.80
2017-05-07T16:25:12.542Z,43.40
2017-05-07T16:28:09.786Z,43.60
2017-05-07T16:30:37.043Z,44.10
2017-05-07T16:33:04.454Z,43.90
2017-05-07T16:35:31.749Z,43.60
2017-05-07T16:37:59.005Z,43.20
2017-05-07T16:40:26.291Z,42.90
2017-05-07T16:42:53.595Z,43.40
2017-05-07T16:45:20.894Z,43.50
2017-05-07T16:47:48.165Z,44.10
2017-05-07T16:50:15.474Z,43.80
2017-05-07T16:52:42.721Z,43.30
2017-05-07T16:55:10.791Z,43.90
2017-05-07T16:57:38.713Z,43.40
2017-05-07T17:00:06.138Z,44.20
2017-05-07T17:02:39.570Z,44.20
2017-05-07T17:05:06.862Z,43.70
2017-05-07T17:07:34.917Z,43.90
2017-05-07T17:10:02.184Z,44.60
2017-05-07T17:12:29.556Z,45.00
2017-05-07T17:14:57.596Z,44.60
2017-05-07T17:17:24.884Z,44.70
2017-05-07T17:19:53.874Z,44.40
2017-05-07T17:22:21.278Z,44.40
2017-05-07T17:24:48.629Z,44.70
2017-05-07T17:27:15.914Z,45.30
2017-05-07T17:29:43.378Z,45.10
2017-05-07T17:32:10.738Z,45.30
2017-05-07T17:34:38.113Z,45.00
2017-05-07T17:37:05.454Z,45.60
2017-05-07T17:39:33.545Z,44.90
2017-05-07T17:42:01.687Z,44.80
2017-05-07T17:44:29.137Z,44.70
2017-05-07T17:46:56.616Z,45.80
2017-05-07T17:49:24.969Z,45.20
2017-05-07T17:51:52.438Z,45.80
2017-05-07T17:54:20.552Z,45.60
2017-05-07T17:56:47.925Z,44.90
2017-05-07T17:59:15.405Z,45.10
2017-05-07T18:01:42.757Z,45.20
2017-05-07T18:04:10.216Z,45.30
2017-05-07T18:06:37.605Z,45.70
2017-05-07T18:09:05.025Z,46.10
2017-05-07T18:11:32.402Z,46.30
2017-05-07T18:13:59.834Z,46.00
2017-05-07T18:16:27.321Z,46.50
2017-05-07T18:18:55.445Z,45.80
2017-05-07T18:21:22.814Z,45.50
2017-05-07T18:23:50.202Z,46.30
2017-05-07T18:26:18.277Z,45.30
2017-05-07T18:28:45.706Z,44.90
2017-05-07T18:31:13.165Z,45.40
2017-05-07T18:33:40.584Z,44.80
2017-05-07T18:36:07.983Z,45.40
2017-05-07T18:38:36.134Z,45.90
2017-05-07T18:41:04.276Z,45.50
2017-05-07T18:43:31.700Z,45.30
2017-05-07T18:45:59.091Z,45.60
2017-05-07T18:48:26.498Z,45.70
2017-05-07T18:50:54.702Z,46.00
2017-05-07T18:53:22.093Z,46.00
2017-05-07T18:55:50.285Z,45.40
2017-05-07T18:58:17.650Z,45.80
2017-05-07T19:00:46.149Z,45.30
2017-05-07T19:03:13.673Z,45.30
2017-05-07T19:05:41.142Z,45.20
2017-05-07T19:08:09.317Z,44.60
2017-05-07T19:10:36.760Z,44.50
2017-05-07T19:13:04.109Z,45.00
2017-05-07T19:15:32.287Z,45.00
2017-05-07T19:17:59.724Z,45.10
2017-05-07T19:20:27.895Z,45.30
2017-05-07T19:22:55.371Z,45.00
2017-05-07T19:25:23.490Z,45.10
2017-05-07T19:27:50.963Z,45.00
2017-05-07T19:30:18.481Z,45.70
2017-05-07T19:32:46.005Z,45.20
2017-05-07T19:35:14.179Z,45.80
2017-05-07T19:37:42.318Z,45.80
2017-05-07T19:40:09.733Z,46.20
2017-05-07T19:42:37.177Z,46.20
2017-05-07T19:45:05.325Z,46.30
2017-05-07T19:47:32.716Z,46.90
2017-05-07T19:50:00.076Z,47.00
2017-05-07T19:52:28.174Z,47.00
2017-05-07T19:54:55.768Z,48.00
2017-05-07T19:57:23.286Z,49.00
2017-05-07T19:59:50.670Z,47.70
2017-05-07T20:02:18.050Z,48.60
2017-05-07T20:04:45.720Z,48.50
2017-05-07T20:07:13.722Z,48.40
2017-05-07T20:09:41.181Z,48.40
2017-05-07T20:12:08.499Z,48.40
2017-05-07T20:14:36.206Z,48.30
2017-05-07T20:17:03.793Z,48.00
2017-05-07T20:19:31.231Z,48.40
2017-05-07T20:21:59.472Z,47.70
2017-05-07T20:24:26.953Z,46.60
2017-05-07T20:26:54.461Z,46.90
2017-05-07T20:29:21.874Z,46.80
2017-05-07T20:31:49.323Z,46.60
2017-05-07T20:34:16.782Z,46.20
2017-05-07T20:36:44.274Z,46.50
2017-05-07T20:39:11.949Z,46.50
2017-05-07T20:41:39.522Z,46.50
2017-05-07T20:44:07.130Z,47.40
2017-05-07T20:46:34.617Z,46.80
2017-05-07T20:49:01.974Z,48.00
2017-05-07T20:51:29.412Z,47.60
2017-05-07T20:53:56.859Z,47.30
2017-05-07T20:56:24.195Z,48.10
2017-05-07T20:58:51.894Z,46.70
2017-05-07T21:01:19.978Z,46.70
2017-05-07T21:03:47.334Z,47.30
2017-05-07T21:06:14.707Z,47.10
2017-05-07T21:08:42.091Z,46.10
2017-05-07T21:11:09.458Z,47.10
2017-05-07T21:13:37.456Z,47.20
2017-05-07T21:16:04.881Z,46.80
2017-05-07T21:18:32.226Z,46.70
2017-05-07T21:20:59.579Z,46.70
2017-05-07T21:23:27.066Z,46.60
2017-05-07T21:25:54.498Z,46.70
2017-05-07T21:28:21.863Z,46.60
2017-05-07T21:30:49.945Z,46.90
2017-05-07T21:33:17.309Z,47.90
2017-05-07T21:35:44.677Z,46.80
2017-05-07T21:38:12.128Z,47.10
2017-05-07T21:40:40.359Z,46.80
2017-05-07T21:43:07.726Z,47.40
2017-05-07T21:45:35.921Z,48.60
2017-05-07T21:48:03.335Z,48.70
2017-05-07T21:50:30.697Z,48.70
2017-05-07T21:52:58.803Z,48.90
2017-05-07T21:55:26.229Z,48.70
2017-05-07T21:57:54.335Z,47.70
2017-05-07T22:00:21.833Z,48.00
2017-05-07T22:02:49.220Z,47.80
2017-05-07T22:05:16.657Z,48.50
2017-05-07T22:07:44.049Z,50.50
2017-05-07T22:10:11.465Z,50.20
2017-05-07T22:12:38.834Z,49.70
2017-05-07T22:15:06.936Z,49.30
2017-05-07T22:17:34.270Z,49.70
2017-05-07T22:20:01.665Z,49.80
2017-05-07T22:22:29.051Z,49.80
2017-05-07T22:24:56.413Z,49.60
2017-05-07T22:27:24.616Z,49.90
2017-05-07T22:29:52.030Z,50.10
2017-05-07T22:32:19.370Z,49.90
2017-05-07T22:34:46.701Z,50.80
2017-05-07T22:37:14.075Z,50.00
2017-05-07T22:39:41.435Z,49.80
2017-05-07T22:42:08.765Z,50.40
2017-05-07T22:44:36.152Z,51.80
2017-05-07T22:47:03.532Z,51.10
2017-05-07T22:49:31.797Z,50.60
2017-05-07T22:51:59.190Z,51.00
2017-05-07T22:54:26.699Z,51.90
2017-05-07T22:56:54.065Z,51.50
2017-05-07T22:59:21.550Z,52.20
2017-05-07T23:01:48.961Z,52.00
2017-05-07T23:04:16.292Z,53.10
2017-05-07T23:06:43.667Z,53.70
2017-05-07T23:09:11.782Z,53.50
2017-05-07T23:11:39.177Z,52.90
2017-05-07T23:14:06.556Z,52.70
2017-05-07T23:16:34.665Z,51.90
2017-05-07T23:19:02.037Z,53.50
2017-05-07T23:21:29.425Z,53.10
2017-05-07T23:23:56.831Z,53.50
2017-05-07T23:26:24.231Z,54.10
2017-05-07T23:28:52.356Z,54.50
2017-05-07T23:31:19.774Z,54.10
2017-05-07T23:33:47.930Z,54.70
2017-05-07T23:36:16.037Z,54.20
2017-05-07T23:38:43.413Z,53.70
2017-05-07T23:41:10.808Z,53.70
2017-05-07T23:43:38.926Z,54.60
2017-05-07T23:46:06.283Z,54.10
2017-05-07T23:48:33.656Z,54.60
2017-05-07T23:51:01.135Z,54.10
2017-05-07T23:53:28.487Z,53.50
2017-05-07T23:55:55.902Z,54.60
2017-05-07T23:58:23.299Z,54.40
